OIBK

Kish International Airport

Kish Island, Iran
TAF OIBK 241130Z 2412/2518 27005MPS 5000 HZ NSC BECMG 2418/2420 5000 HZ TEMPO 2423/2503 2000 BR BECMG 2509/2511 23010MPS FEW035TCU SCT040 SCT090
Issued Valid From Valid To
Sep-24 @ 11:30 UTC
(3 hours ago)
Sep-24 @ 12:00 UTC
(2 hours ago)
Sep-25 @ 18:00 UTC
(-1 days ago)
Sep-24 @ 12:00 to Sep-24 @ 18:00
TAF OIBK 241130Z 2412/2518 27005MPS 5000 HZ NSC
Wind Visibility Clouds Conditions
270° at 10 knots 5,005 meters
  • No significant clouds
  • Haze
Becoming Sep-24 @ 18:00 to Sep-25 @ 09:00
BECMG 2418/2420 5000 HZ
Wind Visibility Clouds Conditions
270° at 10 knots 5,005 meters
  • No significant clouds
  • Haze
Temporary Sep-24 @ 23:00 to Sep-25 @ 03:00
TEMPO 2423/2503 2000 BR
Visibility Conditions
1,996 meters
  • Mist
Becoming Sep-25 @ 09:00 to Sep-25 @ 18:00
BECMG 2509/2511 23010MPS FEW035TCU SCT040 SCT090
Wind Visibility Clouds Conditions
230° at 19 knots 5,005 meters
  • Few at 3,500' AGL
  • Scattered at 4,000' AGL
  • Scattered at 9,000' AGL
  • Haze
TAF OIBK 241130Z 2412/2518 27005MPS 5000 HZ NSC BECMG 2418/2420 5000 HZ TEMPO 2423/2503 2000 BR BECMG 2509/2511 23010MPS FEW035TCU SCT040 SCT090
Issued Sep-24 @ 11:30 UTC
(3 hours ago)
Valid From Sep-24 @ 12:00 UTC
(2 hours ago)
Valid To Sep-25 @ 18:00 UTC
(-1 days ago)
Sep-24 @ 12:00 - Sep-24 @ 18:00
Wind Visibility
270° at 10 knots 5,005 meters
Clouds
  • No significant clouds
Conditions
  • Haze
Becoming Sep-24 @ 18:00 - Sep-25 @ 09:00
Wind Visibility
270° at 10 knots 5,005 meters
Clouds
  • No significant clouds
Conditions
  • Haze
Temporary Sep-24 @ 23:00 - Sep-25 @ 03:00
Conditions
  • Mist
Becoming Sep-25 @ 09:00 - Sep-25 @ 18:00
Wind Visibility
230° at 19 knots 5,005 meters
Clouds
  • Few at 3,500' AGL
  • Scattered at 4,000' AGL
  • Scattered at 9,000' AGL
Conditions
  • Haze